Time;durP1;ratioP1;P1;durP2;ratioP2;P2;SDS_P1;SDS_P2;PMS_P1;PMS_P2;Temp;Humidity;BMP_temperature;BMP_pressure;BME280_temperature;BME280_humidity;BME280_pressure;Samples;Min_cycle;Max_cycle;Signal;HPM_P1;HPM_P2
2022/06/13 00:01:52;;;;;;;2.47;2.22;;;24.90;46.70;26.00;101220.00;;;;5069141;28;20219;-46
2022/06/13 00:04:18;;;;;;;2.78;2.20;;;24.90;46.60;26.00;101223.00;;;;5068575;28;20198;-46
2022/06/13 00:06:44;;;;;;;3.55;2.33;;;24.90;46.70;26.00;101221.00;;;;5068950;28;20171;-45
2022/06/13 00:09:09;;;;;;;3.00;2.38;;;24.90;46.60;26.00;101223.00;;;;5068115;28;20529;-46
2022/06/13 00:11:35;;;;;;;3.60;2.28;;;24.90;46.70;25.90;101219.00;;;;5068939;28;20650;-46
2022/06/13 00:14:02;;;;;;;2.85;2.50;;;24.80;46.60;25.90;101233.00;;;;5068581;28;20620;-46
2022/06/13 00:16:28;;;;;;;3.13;2.45;;;24.80;46.60;25.80;101219.00;;;;5068978;28;20193;-46
2022/06/13 00:18:53;;;;;;;3.10;2.30;;;24.80;46.60;25.90;101213.00;;;;5067947;28;20212;-45
2022/06/13 00:21:31;;;;;;;3.45;2.50;;;24.70;46.50;25.80;101215.00;;;;5068714;28;20200;-46
2022/06/13 00:23:58;;;;;;;3.50;2.30;;;24.70;46.50;25.80;101213.00;;;;5068092;28;20213;-46
2022/06/13 00:26:25;;;;;;;4.28;2.42;;;24.70;46.60;25.80;101208.00;;;;5069000;28;20665;-46
2022/06/13 00:28:52;;;;;;;3.40;2.40;;;24.70;46.70;25.70;101206.00;;;;5068066;28;20174;-47
2022/06/13 00:31:18;;;;;;;3.75;2.40;;;24.60;46.60;25.70;101207.00;;;;5068516;28;20179;-47
2022/06/13 00:33:44;;;;;;;4.17;2.60;;;24.70;46.60;25.70;101196.00;;;;5068292;28;20189;-46
2022/06/13 00:36:10;;;;;;;3.43;2.50;;;24.60;46.70;25.70;101189.00;;;;5071033;28;20173;-48
2022/06/13 00:38:37;;;;;;;3.33;2.50;;;24.60;46.50;25.70;101200.00;;;;5090714;28;20173;-46
2022/06/13 00:41:18;;;;;;;2.92;2.30;;;24.60;46.60;25.60;101199.00;;;;5090179;28;20184;-47
2022/06/13 00:43:45;;;;;;;4.80;2.40;;;24.60;46.80;25.60;101204.00;;;;5086703;28;20256;-46
2022/06/13 00:46:23;;;;;;;3.13;2.30;;;24.60;46.70;25.60;101208.00;;;;5078496;28;20260;-46
2022/06/13 00:49:04;;;;;;;3.57;2.47;;;24.50;47.10;25.50;101122.00;;;;5068300;28;20146;-46
2022/06/13 00:51:30;;;;;;;3.03;2.30;;;24.50;46.40;25.50;101194.00;;;;5040368;28;20158;-45
2022/06/13 00:53:56;;;;;;;3.33;2.33;;;24.40;46.50;25.50;101193.00;;;;5058893;28;20195;-45
2022/06/13 00:56:23;;;;;;;3.70;2.70;;;24.40;46.60;25.50;101195.00;;;;5067261;28;20170;-47
2022/06/13 00:59:01;;;;;;;4.90;2.60;;;24.40;46.60;25.40;101198.00;;;;5066452;28;20788;-45
2022/06/13 01:01:28;;;;;;;4.10;2.43;;;24.40;46.70;25.40;101197.00;;;;5069615;28;20192;-45
2022/06/13 01:03:56;;;;;;;3.77;2.40;;;24.40;46.70;25.40;101193.00;;;;5070820;28;20201;-46
2022/06/13 01:06:22;;;;;;;3.57;2.43;;;24.40;46.70;25.40;101184.00;;;;5072028;28;20658;-47
2022/06/13 01:08:47;;;;;;;4.10;2.30;;;24.30;46.70;25.30;101181.00;;;;5053989;28;20158;-46
2022/06/13 01:11:17;;;;;;;2.50;2.20;;;24.30;46.70;25.30;101187.00;;;;5071809;28;20185;-46
2022/06/13 01:13:48;;;;;;;3.43;2.57;;;24.30;46.90;25.30;101189.00;;;;5054601;28;20192;-47
2022/06/13 01:16:52;;;;;;;3.58;2.50;;;24.30;46.90;25.30;101191.00;;;;5072357;28;20528;-46
2022/06/13 01:19:52;;;;;;;2.70;2.40;;;24.20;46.90;25.20;101189.00;;;;5058766;28;20173;-46
2022/06/13 01:22:57;;;;;;;4.83;2.40;;;24.20;47.00;25.20;101191.00;;;;5070690;28;20244;-46
2022/06/13 01:25:55;;;;;;;2.70;2.40;;;24.20;47.00;25.20;101199.00;;;;5070806;28;20292;-46
2022/06/13 01:29:11;;;;;;;3.07;2.40;;;24.10;47.00;25.10;101196.00;;;;5074426;28;20176;-45
2022/06/13 01:32:11;;;;;;;4.53;2.60;;;24.10;47.10;25.10;101190.00;;;;5065982;28;20266;-46
2022/06/13 01:34:58;;;;;;;3.17;2.53;;;24.10;47.20;25.00;101189.00;;;;5071907;28;20166;-46
2022/06/13 01:38:07;;;;;;;2.80;2.47;;;24.10;47.50;25.00;101189.00;;;;5069947;28;20150;-46
2022/06/13 01:41:16;;;;;;;3.07;2.43;;;24.10;47.30;25.00;101200.00;;;;5071843;28;20154;-46
2022/06/13 01:43:55;;;;;;;3.97;2.37;;;24.10;47.30;24.90;101201.00;;;;5071154;28;20747;-46
2022/06/13 01:46:38;;;;;;;4.07;2.70;;;24.00;47.10;24.90;101207.00;;;;5070135;28;20688;-46
2022/06/13 01:49:07;;;;;;;2.80;2.20;;;24.00;47.20;24.90;101200.00;;;;5055430;28;20180;-46
2022/06/13 01:51:41;;;;;;;3.13;2.60;;;24.00;47.40;24.90;101216.00;;;;5071479;28;20161;-46
2022/06/13 01:54:42;;;;;;;3.07;2.27;;;24.00;47.50;24.90;101212.00;;;;5071407;28;20211;-46
2022/06/13 01:57:14;;;;;;;5.33;2.60;;;23.90;47.30;24.80;101212.00;;;;5069626;28;20692;-46
2022/06/13 01:59:54;;;;;;;3.87;2.70;;;23.90;47.30;24.80;101152.00;;;;5071096;28;20154;-46
2022/06/13 02:02:40;;;;;;;4.53;2.70;;;23.90;47.30;24.80;101217.00;;;;5070852;28;20194;-45
2022/06/13 02:05:36;;;;;;;3.67;2.70;;;23.90;47.40;24.80;101222.00;;;;5071137;28;20232;-44
2022/06/13 02:08:25;;;;;;;3.50;2.77;;;23.90;47.40;24.70;101217.00;;;;5056510;28;20245;-46
2022/06/13 02:11:05;;;;;;;3.80;2.40;;;23.80;47.10;24.70;101211.00;;;;5053676;28;20158;-46
2022/06/13 02:13:47;;;;;;;3.60;2.67;;;23.80;47.10;24.70;101221.00;;;;5037434;28;20189;-45
2022/06/13 02:16:37;;;;;;;4.33;2.90;;;23.80;47.30;24.70;101226.00;;;;5052092;28;20222;-47
2022/06/13 02:19:32;;;;;;;3.60;2.70;;;23.80;47.30;24.70;101210.00;;;;5055995;28;20185;-47
2022/06/13 02:22:09;;;;;;;3.37;2.50;;;23.80;47.20;24.60;101205.00;;;;5078719;28;20173;-46
2022/06/13 02:24:42;;;;;;;4.50;2.70;;;23.70;47.30;24.60;101208.00;;;;5084059;28;20189;-45
2022/06/13 02:27:08;;;;;;;3.67;2.60;;;23.70;47.40;24.60;101205.00;;;;5091327;28;20173;-47
2022/06/13 02:29:40;;;;;;;3.90;2.80;;;23.70;47.40;24.60;101209.00;;;;5072963;28;20184;-46
2022/06/13 02:32:20;;;;;;;3.23;2.80;;;23.70;47.30;24.50;101191.00;;;;5075268;28;20189;-46
2022/06/13 02:35:10;;;;;;;4.50;2.70;;;23.60;47.50;24.50;101204.00;;;;5075322;28;20161;-46
2022/06/13 02:37:57;;;;;;;3.47;2.50;;;23.60;47.30;24.50;101197.00;;;;5076218;28;20200;-47
2022/06/13 02:40:44;;;;;;;4.60;2.80;;;23.60;47.50;24.50;101210.00;;;;5089749;28;20173;-46
2022/06/13 02:43:45;;;;;;;3.20;2.53;;;23.60;47.20;24.50;101215.00;;;;5089305;28;20204;-47
2022/06/13 02:46:19;;;;;;;3.70;2.63;;;23.60;47.30;24.40;101211.00;;;;5089477;28;20581;-45
2022/06/13 02:49:05;;;;;;;3.87;2.50;;;23.60;47.20;24.40;101212.00;;;;5072495;28;20173;-46
2022/06/13 02:51:45;;;;;;;3.40;2.87;;;23.60;47.30;24.40;101188.00;;;;5090343;28;20590;-45
2022/06/13 02:54:21;;;;;;;5.07;3.00;;;23.50;47.40;24.40;101188.00;;;;5073021;28;20169;-46
2022/06/13 02:57:31;;;;;;;5.77;2.67;;;23.50;47.50;24.40;101185.00;;;;5081156;28;20215;-47
2022/06/13 03:00:22;;;;;;;3.90;2.57;;;23.50;47.60;24.30;101168.00;;;;5070172;28;20158;-47
2022/06/13 03:03:03;;;;;;;4.23;2.77;;;23.50;47.80;24.30;101201.00;;;;5053273;28;20712;-45
2022/06/13 03:05:46;;;;;;;3.53;2.50;;;23.40;47.80;24.30;101211.00;;;;5070001;28;20193;-47
2022/06/13 03:08:44;;;;;;;4.43;2.73;;;23.40;47.60;24.10;101192.00;;;;5071077;28;20161;-46
2022/06/13 03:11:34;;;;;;;4.50;2.67;;;23.40;48.30;24.20;101196.00;;;;5077575;28;20166;-46
2022/06/13 03:14:17;;;;;;;3.60;2.60;;;23.40;48.10;24.20;101198.00;;;;5076268;28;20265;-47
2022/06/13 03:17:02;;;;;;;3.23;2.53;;;23.40;48.00;24.20;101204.00;;;;5076307;28;20211;-45
2022/06/13 03:19:36;;;;;;;3.67;2.70;;;23.30;48.00;24.10;101214.00;;;;5072990;28;20153;-46
2022/06/13 03:22:15;;;;;;;3.43;2.73;;;23.30;48.00;24.10;101200.00;;;;5057094;28;20273;-46
2022/06/13 03:25:07;;;;;;;3.10;2.50;;;23.30;48.00;24.10;101215.00;;;;5069741;28;20280;-45
2022/06/13 03:27:51;;;;;;;3.27;2.97;;;23.30;48.00;24.10;101209.00;;;;5069771;28;20551;-46
2022/06/13 03:30:22;;;;;;;3.97;2.83;;;23.20;48.00;24.10;101224.00;;;;5068594;28;20777;-45
2022/06/13 03:35:41;;;;;;;6.13;5.20;;;23.20;48.00;24.00;101233.00;;;;5054992;28;20161;-47
2022/06/13 03:38:08;;;;;;;4.37;3.90;;;23.20;48.10;24.00;101234.00;;;;5051135;28;20197;-47
2022/06/13 03:40:36;;;;;;;4.53;3.37;;;23.20;48.20;24.00;101229.00;;;;5051987;28;20168;-45
2022/06/13 03:43:17;;;;;;;3.70;2.90;;;23.10;49.00;24.00;101228.00;;;;5070190;28;20197;-45
2022/06/13 03:46:23;;;;;;;4.33;3.00;;;23.10;48.50;24.00;101227.00;;;;5063176;28;20623;-47
2022/06/13 03:49:06;;;;;;;4.20;2.97;;;23.10;48.50;23.90;101228.00;;;;5070389;28;20500;-46
2022/06/13 03:51:45;;;;;;;3.30;2.80;;;23.10;48.50;23.90;101227.00;;;;5053488;28;20212;-46
2022/06/13 03:54:15;;;;;;;6.83;2.90;;;23.10;48.60;23.90;101223.00;;;;5052697;28;20235;-46
2022/06/13 03:56:48;;;;;;;3.83;2.83;;;23.10;48.70;23.80;101228.00;;;;5051592;28;20630;-46
2022/06/13 03:59:23;;;;;;;4.83;3.03;;;23.10;48.80;23.80;101217.00;;;;5058489;28;20165;-46
2022/06/13 04:01:55;;;;;;;4.03;2.87;;;23.00;48.70;23.80;101205.00;;;;5089994;28;20195;-47
2022/06/13 04:04:24;;;;;;;3.47;2.70;;;23.00;48.90;23.80;101220.00;;;;5069017;28;20279;-45
2022/06/13 04:06:50;;;;;;;4.67;2.90;;;23.00;48.90;23.80;101217.00;;;;5052013;28;20165;-46
2022/06/13 04:09:26;;;;;;;4.07;2.80;;;23.00;49.00;23.80;101205.00;;;;5068892;28;20161;-46
2022/06/13 04:12:00;;;;;;;3.83;2.80;;;23.00;49.10;23.80;101215.00;;;;5067958;28;20663;-48
2022/06/13 04:15:00;;;;;;;4.00;2.93;;;23.00;49.00;23.70;101209.00;;;;5068927;28;20161;-45
2022/06/13 04:17:30;;;;;;;4.20;2.80;;;23.00;49.20;23.70;101212.00;;;;5067724;28;20161;-46
2022/06/13 04:20:24;;;;;;;5.57;2.67;;;22.90;49.10;23.70;101211.00;;;;5081908;28;20196;-46
2022/06/13 04:23:11;;;;;;;5.20;2.70;;;22.90;49.20;23.70;101213.00;;;;5051298;28;20235;-46
2022/06/13 04:25:52;;;;;;;3.33;2.50;;;22.90;49.40;23.70;101218.00;;;;5068071;28;20194;-45
2022/06/13 04:29:14;;;;;;;3.87;2.70;;;22.90;49.40;23.70;101214.00;;;;5052311;28;20158;-47
2022/06/13 04:31:40;;;;;;;6.00;2.67;;;22.80;50.00;23.60;101210.00;;;;5046503;28;20533;-46
2022/06/13 04:34:10;;;;;;;5.73;3.07;;;22.80;49.50;23.60;101195.00;;;;5047769;28;20201;-46
2022/06/13 04:36:36;;;;;;;4.73;2.70;;;22.80;49.50;23.60;101217.00;;;;5050913;28;20566;-47
2022/06/13 04:39:05;;;;;;;3.53;2.87;;;22.80;49.40;23.60;101216.00;;;;5066985;28;20169;-45
2022/06/13 04:41:33;;;;;;;5.63;2.80;;;22.80;49.70;23.60;101210.00;;;;5067244;28;20169;-46
2022/06/13 04:44:01;;;;;;;5.60;2.70;;;22.80;49.70;23.60;101214.00;;;;5050450;28;20201;-46
2022/06/13 04:46:28;;;;;;;4.80;3.13;;;22.80;49.90;23.60;101218.00;;;;5050602;28;20165;-47
2022/06/13 04:48:56;;;;;;;3.50;2.70;;;22.70;49.80;23.60;101212.00;;;;5049846;28;20172;-47
2022/06/13 04:51:30;;;;;;;5.10;3.10;;;22.70;49.90;23.50;101212.00;;;;5051277;28;20170;-48
2022/06/13 04:54:07;;;;;;;5.63;3.40;;;22.70;49.90;23.50;101217.00;;;;5067541;28;20190;-47
2022/06/13 04:56:33;;;;;;;4.93;3.27;;;22.70;49.70;23.50;101219.00;;;;5068111;28;20192;-46
2022/06/13 04:58:59;;;;;;;4.07;3.17;;;22.70;49.90;23.50;101223.00;;;;5066509;28;20788;-47
2022/06/13 05:01:35;;;;;;;3.93;2.90;;;22.70;50.00;23.50;101227.00;;;;5066779;28;20658;-47
2022/06/13 05:04:03;;;;;;;4.63;2.90;;;22.70;50.10;23.50;101228.00;;;;5050249;28;20212;-46
2022/06/13 05:06:39;;;;;;;5.23;3.20;;;22.70;50.10;23.50;101237.00;;;;5050274;28;20176;-46
2022/06/13 05:09:10;;;;;;;2.70;2.50;;;22.70;50.10;23.40;101244.00;;;;5066302;28;20237;-46
2022/06/13 05:12:06;;;;;;;4.37;2.80;;;22.60;50.10;23.40;101251.00;;;;5067025;28;20162;-45
2022/06/13 05:14:57;;;;;;;3.30;2.77;;;22.70;50.20;23.30;101289.00;;;;5054217;28;20158;-44
2022/06/13 05:18:10;;;;;;;5.17;3.00;;;22.60;50.30;23.30;101290.00;;;;5067923;28;20162;-43
2022/06/13 05:21:14;;;;;;;3.27;2.70;;;22.60;50.40;23.30;101288.00;;;;5068542;28;20173;-45
2022/06/13 05:24:16;;;;;;;3.60;2.50;;;22.50;50.50;23.30;101268.00;;;;5067471;28;20216;-45
2022/06/13 05:26:42;;;;;;;6.67;2.53;;;22.60;50.70;23.20;101284.00;;;;5051854;28;20168;-45
2022/06/13 05:29:10;;;;;;;4.77;2.90;;;22.60;50.60;23.20;101275.00;;;;5067719;28;20188;-46
2022/06/13 05:31:36;;;;;;;5.97;2.87;;;22.50;50.50;23.20;101261.00;;;;5068163;28;20203;-47
2022/06/13 05:34:02;;;;;;;3.50;2.60;;;22.60;50.70;23.20;101272.00;;;;5050014;28;20213;-46
2022/06/13 05:36:28;;;;;;;3.70;2.70;;;22.50;50.60;23.20;101280.00;;;;5069752;28;20673;-46
2022/06/13 05:39:03;;;;;;;3.07;2.53;;;22.50;50.80;23.20;101270.00;;;;5053340;28;20197;-46
2022/06/13 05:41:28;;;;;;;4.40;2.60;;;22.50;50.80;23.10;101277.00;;;;5051687;28;20174;-46
2022/06/13 05:43:54;;;;;;;2.80;2.37;;;22.50;50.90;23.10;101274.00;;;;5067380;28;20682;-45
2022/06/13 05:46:34;;;;;;;2.73;2.53;;;22.50;50.90;23.10;101281.00;;;;5067787;28;20576;-45
2022/06/13 05:49:00;;;;;;;3.43;2.67;;;22.50;51.00;23.10;101279.00;;;;5053326;28;20166;-46
2022/06/13 05:51:26;;;;;;;3.67;2.80;;;22.50;51.10;23.10;101279.00;;;;5053681;28;20660;-47
2022/06/13 05:53:52;;;;;;;3.90;2.70;;;22.50;51.20;23.00;101276.00;;;;5071383;28;20197;-46
2022/06/13 05:56:19;;;;;;;3.53;2.63;;;22.50;51.30;23.00;101282.00;;;;5071156;28;20185;-45
2022/06/13 05:58:45;;;;;;;2.63;2.30;;;22.50;51.40;23.00;101275.00;;;;5069432;28;20177;-46
2022/06/13 06:01:13;;;;;;;5.20;3.17;;;22.40;51.40;23.00;101274.00;;;;5071536;28;20945;-46
2022/06/13 06:03:40;;;;;;;2.87;2.60;;;22.40;51.60;23.00;101275.00;;;;5053807;28;20581;-48
2022/06/13 06:06:06;;;;;;;4.20;2.90;;;22.40;51.70;23.00;101284.00;;;;5071545;28;20169;-45
2022/06/13 06:08:35;;;;;;;4.17;2.90;;;22.40;51.70;23.00;101283.00;;;;5070952;28;20170;-44
2022/06/13 06:11:01;;;;;;;4.93;2.70;;;22.40;51.80;23.00;101284.00;;;;5071407;28;20173;-46
2022/06/13 06:13:27;;;;;;;3.60;2.80;;;22.40;51.70;23.00;101296.00;;;;5070963;28;20193;-45
2022/06/13 06:15:54;;;;;;;4.70;2.83;;;22.40;51.90;23.00;101294.00;;;;5071334;28;20174;-45
2022/06/13 06:18:20;;;;;;;3.77;2.80;;;22.40;52.10;22.90;101287.00;;;;5070891;28;20157;-45
2022/06/13 06:20:46;;;;;;;3.13;2.50;;;22.30;52.10;22.90;101289.00;;;;5071061;28;20201;-45
2022/06/13 06:23:15;;;;;;;3.23;2.77;;;22.30;52.10;22.90;101298.00;;;;5070576;28;20233;-45
2022/06/13 06:25:41;;;;;;;5.03;3.07;;;22.30;52.10;22.90;101298.00;;;;5070586;28;20224;-46
2022/06/13 06:28:07;;;;;;;5.50;3.30;;;22.30;52.10;22.90;101308.00;;;;5072705;28;20178;-47
2022/06/13 06:30:33;;;;;;;3.03;2.73;;;22.30;52.10;22.90;101306.00;;;;5070164;28;20166;-45
2022/06/13 06:32:59;;;;;;;3.60;3.00;;;22.30;52.10;22.90;101310.00;;;;5069766;28;20193;-45
2022/06/13 06:35:27;;;;;;;3.80;2.87;;;22.30;52.10;22.90;101311.00;;;;5072419;28;20189;-45
2022/06/13 06:37:53;;;;;;;4.13;3.20;;;22.30;52.40;22.90;101313.00;;;;5069178;28;20185;-44
2022/06/13 06:40:22;;;;;;;3.83;3.00;;;22.30;52.30;22.90;101319.00;;;;5069598;28;20266;-45
2022/06/13 06:42:48;;;;;;;3.47;2.67;;;22.20;52.50;22.90;101321.00;;;;5070752;28;20251;-46
2022/06/13 06:45:13;;;;;;;3.97;3.00;;;22.20;52.40;22.90;101325.00;;;;5071393;28;20292;-45
2022/06/13 06:47:40;;;;;;;3.37;2.63;;;22.20;52.40;22.80;101326.00;;;;5021239;28;20623;-45
2022/06/13 06:50:12;;;;;;;4.30;2.93;;;22.20;52.80;22.80;101332.00;;;;5090879;28;20161;-47
2022/06/13 06:52:38;;;;;;;5.07;3.20;;;22.10;52.50;22.80;101318.00;;;;5088893;28;20275;-46
2022/06/13 07:00:33;;;;;;;3.43;2.90;;;22.10;52.90;22.80;101296.00;;;;5112294;28;20650;-45
2022/06/13 07:02:59;;;;;;;4.13;3.10;;;22.10;52.90;22.70;101301.00;;;;5110532;28;20218;-44
2022/06/13 07:05:24;;;;;;;4.07;2.70;;;22.10;53.10;22.70;101301.00;;;;5090781;27;20283;-44
2022/06/13 07:07:50;;;;;;;4.80;3.10;;;22.00;53.00;22.70;101308.00;;;;5090421;28;20173;-46
2022/06/13 07:10:16;;;;;;;3.97;2.83;;;22.00;53.20;22.70;101294.00;;;;5090271;28;20169;-45
2022/06/13 07:12:42;;;;;;;5.83;3.23;;;22.00;53.10;22.70;101306.00;;;;5090042;28;20195;-45
2022/06/13 07:15:09;;;;;;;5.23;3.73;;;22.00;53.40;22.70;101293.00;;;;5090032;28;20173;-46
2022/06/13 07:17:35;;;;;;;4.40;3.43;;;22.00;54.00;22.70;101296.00;;;;5105424;28;20223;-46
2022/06/13 07:20:01;;;;;;;7.63;3.40;;;22.10;53.70;22.70;101301.00;;;;5092596;28;20605;-45
2022/06/13 07:22:27;;;;;;;5.27;3.40;;;22.00;54.10;22.70;101303.00;;;;5113976;28;20227;-45
2022/06/13 07:24:53;;;;;;;3.43;3.03;;;22.10;54.00;22.70;101312.00;;;;5116379;28;20195;-45
2022/06/13 07:27:18;;;;;;;4.57;3.20;;;22.00;53.90;22.70;101323.00;;;;5114631;28;20657;-46
2022/06/13 07:29:44;;;;;;;4.97;3.37;;;22.00;54.00;22.70;101314.00;;;;5117910;28;20171;-46
2022/06/13 07:32:21;;;;;;;3.70;2.90;;;22.00;53.90;22.70;101316.00;;;;5118584;28;20184;-46
2022/06/13 07:34:49;;;;;;;4.50;3.27;;;21.90;53.90;22.70;101322.00;;;;5115013;28;20172;-45
2022/06/13 07:40:07;;;;;;;5.23;3.87;;;21.90;54.50;22.60;101331.00;;;;5116047;28;20175;-45
2022/06/13 07:42:38;;;;;;;5.63;3.80;;;22.00;54.80;22.60;101325.00;;;;5096263;28;20608;-45
2022/06/13 07:45:05;;;;;;;5.00;4.00;;;22.00;55.10;22.60;101268.00;;;;5105444;28;20185;-46
2022/06/13 07:47:31;;;;;;;7.27;3.87;;;21.90;55.20;22.60;101334.00;;;;5038196;27;20169;-47
2022/06/13 07:49:57;;;;;;;6.60;4.30;;;21.90;55.30;22.60;101335.00;;;;4779452;27;21456;-46
2022/06/13 07:52:23;;;;;;;4.47;3.97;;;21.90;55.10;22.60;101338.00;;;;5080595;28;20189;-46
2022/06/13 07:54:49;;;;;;;6.97;3.80;;;21.90;55.20;22.60;101344.00;;;;5071925;28;20186;-46
2022/06/13 07:57:15;;;;;;;8.43;4.30;;;21.90;55.20;22.60;101339.00;;;;5086761;28;20177;-46
2022/06/13 07:59:40;;;;;;;6.63;4.33;;;21.90;55.20;22.50;101339.00;;;;5105188;28;20177;-45
2022/06/13 08:02:13;;;;;;;8.00;4.37;;;21.90;55.20;22.30;101335.00;;;;5105374;28;20192;-45
2022/06/13 08:04:39;;;;;;;9.40;4.40;;;21.90;55.20;22.50;101338.00;;;;5124540;27;20577;-46
2022/06/13 08:07:05;;;;;;;8.60;4.20;;;21.90;55.50;22.50;101330.00;;;;5109287;28;20172;-46
2022/06/13 08:09:30;;;;;;;8.03;5.00;;;21.90;55.20;22.50;101331.00;;;;5090703;28;20199;-45
2022/06/13 08:11:56;;;;;;;8.43;4.40;;;21.90;55.50;22.50;101339.00;;;;5088670;28;20595;-46
2022/06/13 08:14:22;;;;;;;8.27;4.60;;;21.80;55.50;22.50;101352.00;;;;5093850;28;20176;-46
2022/06/13 08:16:48;;;;;;;9.00;4.70;;;21.90;55.80;22.50;101349.00;;;;5097829;28;20168;-46
2022/06/13 08:19:13;;;;;;;7.30;4.37;;;21.80;55.50;22.50;101352.00;;;;5088656;28;20160;-45
2022/06/13 08:21:40;;;;;;;10.57;4.87;;;21.80;55.40;22.50;101360.00;;;;5088188;28;20578;-45
2022/06/13 08:24:06;;;;;;;10.07;4.77;;;21.80;55.50;22.50;101365.00;;;;5088445;28;20240;-46
2022/06/13 08:26:32;;;;;;;8.30;4.80;;;21.80;55.80;22.60;101356.00;;;;5088830;28;20613;-46
2022/06/13 08:28:57;;;;;;;7.60;5.30;;;21.80;55.60;22.60;101366.00;;;;5104229;28;20483;-45
2022/06/13 08:31:23;;;;;;;10.83;6.03;;;21.80;56.00;22.50;101358.00;;;;5089079;28;20199;-46
2022/06/13 08:33:49;;;;;;;12.53;6.37;;;21.80;56.00;22.50;101360.00;;;;5103973;28;20196;-47
2022/06/13 08:36:15;;;;;;;11.10;6.40;;;21.80;56.10;22.50;101371.00;;;;5088668;28;20185;-44
2022/06/13 08:38:41;;;;;;;9.87;6.80;;;21.80;56.40;22.50;101367.00;;;;5088988;28;20213;-45
2022/06/13 08:41:21;;;;;;;10.03;6.10;;;21.80;56.40;22.50;101358.00;;;;5089060;28;20181;-46
2022/06/13 08:44:08;;;;;;;10.10;6.13;;;21.80;56.20;22.50;101364.00;;;;5087327;28;20203;-46
2022/06/13 08:47:20;;;;;;;8.50;5.77;;;21.80;56.20;22.50;101363.00;;;;5068155;28;20180;-44
2022/06/13 08:50:01;;;;;;;9.07;5.30;;;21.80;56.00;22.50;101368.00;;;;4997052;28;20156;-44
2022/06/13 08:52:29;;;;;;;6.77;5.17;;;21.80;56.00;22.50;101369.00;;;;5087243;28;20189;-46
2022/06/13 08:55:02;;;;;;;8.43;5.20;;;21.70;56.20;22.50;101367.00;;;;5087294;28;20165;-45
2022/06/13 08:57:30;;;;;;;6.93;5.27;;;21.70;56.20;22.60;101379.00;;;;5086956;28;20668;-45
2022/06/13 09:00:19;;;;;;;10.07;5.40;;;21.80;56.00;22.60;101373.00;;;;5074591;28;20161;-45
2022/06/13 09:02:55;;;;;;;7.23;4.67;;;21.70;56.10;22.60;101373.00;;;;5087563;28;20212;-45
2022/06/13 09:05:33;;;;;;;9.47;5.00;;;21.80;56.30;22.60;101363.00;;;;5088369;28;20332;-45
2022/06/13 09:08:17;;;;;;;9.97;5.60;;;21.80;56.20;22.60;101369.00;;;;5071544;28;20172;-45
2022/06/13 09:11:18;;;;;;;11.93;5.40;;;21.80;56.60;22.60;101379.00;;;;5072989;28;20157;-44
2022/06/13 09:13:55;;;;;;;9.33;5.30;;;21.80;56.80;22.50;101371.00;;;;5088108;28;20192;-45
2022/06/13 09:16:29;;;;;;;8.17;4.93;;;21.80;56.40;22.60;101371.00;;;;5069689;28;20649;-46
2022/06/13 09:19:34;;;;;;;8.23;5.10;;;21.80;56.60;22.60;101370.00;;;;5086608;28;20261;-44
2022/06/13 09:23:15;;;;;;;7.20;4.87;;;21.70;56.60;22.60;101368.00;;;;5078430;28;20172;-45
2022/06/13 09:25:49;;;;;;;6.97;4.83;;;21.80;56.40;22.60;101365.00;;;;5048367;28;20201;-45
2022/06/13 09:28:29;;;;;;;7.67;4.97;;;21.70;56.40;22.60;101373.00;;;;5033134;28;20248;-45
2022/06/13 09:31:13;;;;;;;8.90;5.07;;;21.70;56.40;22.60;101379.00;;;;5082965;28;20603;-44
2022/06/13 09:33:45;;;;;;;6.13;4.57;;;21.70;56.50;22.50;101377.00;;;;5092203;28;20193;-44
2022/06/13 09:36:29;;;;;;;8.13;4.63;;;21.70;56.50;22.60;101391.00;;;;5073916;28;20209;-45
2022/06/13 09:39:15;;;;;;;7.57;4.70;;;21.70;56.40;22.50;101385.00;;;;5074726;28;20520;-46
2022/06/13 09:41:55;;;;;;;7.77;4.67;;;21.60;55.90;22.50;101393.00;;;;5092272;28;20608;-45
2022/06/13 09:44:57;;;;;;;7.23;4.20;;;21.70;56.00;22.40;101374.00;;;;5091662;28;20183;-46
2022/06/13 09:48:03;;;;;;;6.47;4.43;;;21.70;55.60;22.40;101385.00;;;;5104687;28;20256;-44
2022/06/13 09:50:48;;;;;;;8.23;4.23;;;21.80;55.20;22.40;101383.00;;;;5016408;27;20199;-44
2022/06/13 09:53:28;;;;;;;9.27;4.60;;;21.60;55.00;22.40;101391.00;;;;5091426;28;20673;-46
2022/06/13 09:56:09;;;;;;;7.27;4.10;;;21.70;55.20;22.40;101384.00;;;;5086485;28;20965;-46
2022/06/13 09:58:48;;;;;;;7.57;4.40;;;21.70;54.70;22.30;101384.00;;;;5070032;28;20180;-44
2022/06/13 10:01:39;;;;;;;5.27;3.87;;;21.70;54.60;22.30;101387.00;;;;5069872;28;20205;-44
2022/06/13 10:04:29;;;;;;;4.53;3.40;;;21.70;54.10;22.30;101377.00;;;;5054248;28;20277;-46
2022/06/13 10:07:15;;;;;;;5.10;3.80;;;21.60;54.10;22.30;101390.00;;;;5056320;28;20226;-45
2022/06/13 10:10:10;;;;;;;6.03;3.67;;;21.60;54.20;22.40;101389.00;;;;5069685;28;20803;-45
2022/06/13 10:13:14;;;;;;;4.80;3.27;;;21.60;54.10;22.40;101393.00;;;;5070742;28;20246;-45
2022/06/13 10:15:59;;;;;;;5.60;3.53;;;21.60;54.20;22.40;101403.00;;;;5070295;28;20522;-44
2022/06/13 10:18:42;;;;;;;5.80;3.53;;;21.60;54.10;22.40;101393.00;;;;5070005;28;20164;-45
2022/06/13 10:21:33;;;;;;;5.80;3.60;;;21.60;54.20;22.40;101404.00;;;;5069552;28;20162;-45
2022/06/13 10:24:30;;;;;;;5.60;3.17;;;21.60;53.90;22.40;101404.00;;;;5069579;28;20203;-45
2022/06/13 10:27:11;;;;;;;5.23;3.50;;;21.60;53.70;22.40;101406.00;;;;5050999;28;20294;-44
2022/06/13 10:29:51;;;;;;;5.23;3.60;;;21.70;53.80;22.50;101402.00;;;;5070761;28;20182;-45
2022/06/13 10:32:37;;;;;;;5.17;3.40;;;21.60;53.70;22.50;101394.00;;;;5071292;28;20193;-44
2022/06/13 10:35:31;;;;;;;5.23;3.20;;;21.60;53.80;22.50;101412.00;;;;5069575;28;20586;-45
2022/06/13 10:38:10;;;;;;;5.27;3.40;;;21.70;53.90;22.50;101404.00;;;;5069458;28;20173;-45
2022/06/13 10:40:36;;;;;;;5.67;3.30;;;21.70;53.90;22.50;101406.00;;;;5069462;28;20218;-45
2022/06/13 10:43:03;;;;;;;4.07;3.20;;;21.60;53.70;22.50;101400.00;;;;5069281;28;20205;-45
2022/06/13 10:45:28;;;;;;;5.53;3.40;;;21.70;53.80;22.60;101397.00;;;;5052744;28;20220;-45
2022/06/13 10:48:25;;;;;;;6.43;3.90;;;21.70;53.70;22.60;101406.00;;;;5069334;28;20166;-44
2022/06/13 10:50:58;;;;;;;6.70;3.60;;;21.80;53.40;22.60;101397.00;;;;5069180;28;20193;-45
2022/06/13 10:53:50;;;;;;;5.10;3.47;;;21.70;53.20;22.50;101410.00;;;;5075316;28;20230;-45
2022/06/13 10:56:25;;;;;;;5.93;3.33;;;21.70;53.00;22.50;101403.00;;;;5086306;28;20187;-46
2022/06/13 10:58:57;;;;;;;3.93;3.23;;;21.60;52.80;22.50;101402.00;;;;5086491;28;20161;-45
2022/06/13 11:01:28;;;;;;;5.30;3.47;;;21.70;53.00;22.60;101400.00;;;;5077324;28;20153;-46
2022/06/13 11:03:57;;;;;;;4.60;3.30;;;21.70;52.90;22.60;101393.00;;;;5070765;28;20287;-45
2022/06/13 11:06:31;;;;;;;6.17;3.40;;;21.80;53.00;22.60;101400.00;;;;5070203;28;20173;-45
2022/06/13 11:09:18;;;;;;;5.00;3.30;;;21.80;52.80;22.60;101386.00;;;;5068879;28;20157;-45
2022/06/13 11:11:44;;;;;;;6.53;3.60;;;21.80;52.80;22.60;101400.00;;;;5068891;28;20171;-44
2022/06/13 11:22:37;;;;;;;5.33;3.40;;;21.80;52.90;22.60;101404.00;;;;5070010;28;20190;-44
2022/06/13 11:23:03;;;;;;;7.50;3.47;;;21.70;52.30;22.70;101394.00;;;;5056999;28;20266;-44
2022/06/13 11:25:33;;;;;;;7.53;3.20;;;21.80;51.90;22.70;101394.00;;;;5072451;28;20196;-45
2022/06/13 11:28:11;;;;;;;4.67;3.13;;;21.80;51.60;22.70;101388.00;;;;5105486;28;20171;-45
2022/06/13 11:30:46;;;;;;;6.63;3.20;;;21.80;50.80;22.70;101389.00;;;;5104056;28;20592;-46
2022/06/13 11:33:40;;;;;;;5.50;3.13;;;21.80;50.80;22.70;101395.00;;;;5106017;28;20199;-45
2022/06/13 11:36:14;;;;;;;5.53;3.17;;;21.70;50.40;22.70;101395.00;;;;5090332;28;20164;-45
2022/06/13 11:38:58;;;;;;;7.67;3.10;;;21.70;50.50;22.70;101397.00;;;;5089137;28;20905;-45
2022/06/13 11:41:42;;;;;;;4.97;3.13;;;21.80;50.10;22.70;101395.00;;;;5089755;28;20229;-44
2022/06/13 11:44:18;;;;;;;5.67;2.97;;;21.90;50.60;22.80;101396.00;;;;5088111;28;20289;-44
2022/06/13 11:46:57;;;;;;;5.03;2.87;;;21.90;50.80;22.80;101400.00;;;;5087522;28;20168;-44